Terminal Aerodrome Forecast
Issued by NWS Lake Charles, LA

Home | Current Version | Previous Version | Text Only | Print | Product List | Glossary On
Versions: 1 2 3 4 5 6 7 8 9 10 11 12 13 14 15 16 17
000
FTUS44 KLCH 290702 AAA
TAFBPT
TAF AMD
KBPT 290702Z 2907/3006 15005KT 5SM BR SKC
      TEMPO 2907/2911 1SM BR
     FM291400 17010KT P6SM SKC
     FM291700 18014G21KT P6SM SKC
     FM300000 18010KT P6SM SKC=

USA.gov is the U.S. government's official web portal to all federal, state and local government web resources and services.